Buford, Colorado
Current Conditions -  °F | °C
As of 2:53 PM on Friday 24 Oct 2014 (Local Time) from KEEO Reporting Station
Clear Clear  
Wind Chill: 74°   Ceiling: Unl
Heat Index: 74°   Visibility: 10mi
Dew Point: 25°   Wind: 14mph
Humidity: 16%   Direction: 240°WSW
Pressure: 30.27"   Gusts: 23mph
Location:  40.0347°N, 107.628°W
Report Text: KEEO 242053Z AUTO 24012G20KT 10SM CLR 23/M04 A3027 RMK AO2 SLP186 T02331039 56017
Loading
Personal Weather Stations






























Interactive Weather Map
Tropical Storm Tracking
New forecast layout! Learn more

10-Day Weather Forecast

Advertisements
Track Severe Weather on mobile